Time;durP1;ratioP1;P1;durP2;ratioP2;P2;SDS_P1;SDS_P2;PMS_P1;PMS_P2;Temp;Humidity;BMP_temperature;BMP_pressure;BME280_temperature;BME280_humidity;BME280_pressure;Samples;Min_cycle;Max_cycle;Signal;HPM_P1;HPM_P2
2023/12/08 00:01:33;;;;;;;;;;;1.90;99.90;;;;;;5119223;27;19931;-85
2023/12/08 00:03:58;;;;;;;;;;;1.90;99.90;;;;;;5114471;27;20390;-82
2023/12/08 00:06:24;;;;;;;;;;;1.90;99.90;;;;;;5120124;27;19924;-83
2023/12/08 00:08:50;;;;;;;;;;;1.90;99.90;;;;;;5115652;27;19932;-88
2023/12/08 00:11:15;;;;;;;;;;;2.00;99.90;;;;;;5114344;27;19979;-84
2023/12/08 00:13:41;;;;;;;;;;;2.00;99.90;;;;;;5113430;27;19934;-83
2023/12/08 00:16:08;;;;;;;;;;;2.00;99.90;;;;;;5117536;27;19923;-83
2023/12/08 00:18:34;;;;;;;;;;;2.00;99.90;;;;;;5118187;27;20266;-83
2023/12/08 00:20:59;;;;;;;;;;;2.10;99.90;;;;;;5119219;27;19946;-83
2023/12/08 00:23:25;;;;;;;;;;;2.00;99.90;;;;;;5114681;27;19923;-83
2023/12/08 00:25:51;;;;;;;;;;;2.00;99.90;;;;;;5117316;27;19927;-88
2023/12/08 00:28:16;;;;;;;;;;;1.90;99.90;;;;;;5121888;27;19923;-83
2023/12/08 00:30:42;;;;;;;;;;;2.00;99.90;;;;;;5119377;27;20398;-84
2023/12/08 00:33:07;;;;;;;;;;;1.90;99.90;;;;;;5128360;27;19976;-83
2023/12/08 00:35:33;;;;;;;;;;;1.90;99.90;;;;;;5123524;27;20000;-85
2023/12/08 00:37:59;;;;;;;;;;;1.90;99.90;;;;;;5127633;27;19930;-83
2023/12/08 00:40:24;;;;;;;;;;;1.90;99.90;;;;;;5120980;27;20340;-84
2023/12/08 00:42:50;;;;;;;;;;;1.90;99.90;;;;;;5115909;27;19931;-85
2023/12/08 00:45:16;;;;;;;;;;;1.80;99.90;;;;;;5119531;27;20282;-83
2023/12/08 00:47:42;;;;;;;;;;;1.90;99.90;;;;;;5122886;27;19969;-83
2023/12/08 00:50:07;;;;;;;;;;;1.80;99.90;;;;;;5121117;27;20019;-82
2023/12/08 00:52:33;;;;;;;;;;;1.90;99.90;;;;;;5117614;27;19931;-83
2023/12/08 00:54:59;;;;;;;;;;;1.90;99.90;;;;;;5148150;27;19946;-83
2023/12/08 00:57:25;;;;;;;;;;;1.90;99.90;;;;;;5115980;27;20373;-83
2023/12/08 00:59:50;;;;;;;;;;;1.90;99.90;;;;;;5115366;27;19923;-83
2023/12/08 01:02:16;;;;;;;;;;;1.90;99.90;;;;;;5113711;27;20255;-84
2023/12/08 01:04:41;;;;;;;;;;;1.90;99.90;;;;;;5115761;27;21444;-83
2023/12/08 01:07:08;;;;;;;;;;;2.00;99.90;;;;;;5136177;27;19939;-83
2023/12/08 01:09:33;;;;;;;;;;;1.90;99.90;;;;;;5109917;27;19927;-84
2023/12/08 01:11:59;;;;;;;;;;;2.00;99.90;;;;;;5095190;27;19930;-83
2023/12/08 01:14:25;;;;;;;;;;;1.90;99.90;;;;;;5110420;27;19931;-83
2023/12/08 01:16:50;;;;;;;;;;;1.90;99.90;;;;;;5117524;27;20293;-85
2023/12/08 01:19:16;;;;;;;;;;;1.90;99.90;;;;;;5113231;27;19974;-83
2023/12/08 01:21:42;;;;;;;;;;;1.90;99.90;;;;;;5113605;27;19932;-84
2023/12/08 01:24:08;;;;;;;;;;;1.90;99.90;;;;;;5110095;27;19924;-83
2023/12/08 01:26:33;;;;;;;;;;;1.90;99.90;;;;;;5117556;27;19951;-83
2023/12/08 01:28:59;;;;;;;;;;;1.90;99.90;;;;;;5115733;27;19984;-83
2023/12/08 01:31:25;;;;;;;;;;;2.00;99.90;;;;;;5112494;27;19924;-84
2023/12/08 01:33:50;;;;;;;;;;;1.90;99.90;;;;;;5116924;27;20386;-84
2023/12/08 01:36:16;;;;;;;;;;;1.90;99.90;;;;;;5098922;28;20019;-83
2023/12/08 01:38:44;;;;;;;;;;;1.90;99.90;;;;;;5117580;27;19938;-85
2023/12/08 01:41:14;;;;;;;;;;;1.90;99.90;;;;;;5115046;27;19927;-83
2023/12/08 01:43:40;;;;;;;;;;;1.90;99.90;;;;;;5117663;27;20040;-83
2023/12/08 01:46:06;;;;;;;;;;;1.90;99.90;;;;;;5096621;28;21973;-87
2023/12/08 01:48:32;;;;;;;;;;;1.90;99.90;;;;;;5135683;27;20014;-83
2023/12/08 01:50:57;;;;;;;;;;;2.00;99.90;;;;;;5117645;27;20045;-83
2023/12/08 01:53:23;;;;;;;;;;;1.90;99.90;;;;;;5116253;27;19928;-82
2023/12/08 01:55:49;;;;;;;;;;;1.80;99.90;;;;;;5117823;27;19924;-83
2023/12/08 01:58:15;;;;;;;;;;;1.90;99.90;;;;;;5108879;27;19927;-83
2023/12/08 02:00:42;;;;;;;;;;;1.90;99.90;;;;;;5113499;27;19931;-83
2023/12/08 02:03:10;;;;;;;;;;;1.90;99.90;;;;;;5133875;27;20276;-84
2023/12/08 02:05:36;;;;;;;;;;;1.90;99.90;;;;;;5110738;27;19928;-83
2023/12/08 02:08:02;;;;;;;;;;;1.80;99.90;;;;;;5105781;27;19924;-84
2023/12/08 02:10:28;;;;;;;;;;;1.90;99.90;;;;;;5111747;27;20016;-83
2023/12/08 02:12:53;;;;;;;;;;;1.80;99.90;;;;;;5096266;27;19932;-83
2023/12/08 02:15:19;;;;;;;;;;;1.80;99.90;;;;;;5109362;28;19924;-83
2023/12/08 02:17:45;;;;;;;;;;;1.80;99.90;;;;;;5095804;28;19927;-85
2023/12/08 02:20:10;;;;;;;;;;;1.80;99.90;;;;;;5087746;28;19928;-84
2023/12/08 02:22:36;;;;;;;;;;;1.90;99.90;;;;;;5114502;27;19931;-83
2023/12/08 02:25:02;;;;;;;;;;;1.80;99.90;;;;;;5114583;27;19951;-83
2023/12/08 02:27:28;;;;;;;;;;;1.80;99.90;;;;;;5119809;27;19994;-85
2023/12/08 02:29:53;;;;;;;;;;;1.80;99.90;;;;;;5121013;27;20050;-84
2023/12/08 02:32:28;;;;;;;;;;;1.90;99.90;;;;;;5115538;27;19931;-83
2023/12/08 02:34:57;;;;;;;;;;;1.80;99.90;;;;;;5119380;27;19969;-84
2023/12/08 02:37:23;;;;;;;;;;;1.80;99.90;;;;;;5118812;27;19924;-83
2023/12/08 02:39:49;;;;;;;;;;;1.80;99.90;;;;;;5115031;27;19923;-85
2023/12/08 02:42:14;;;;;;;;;;;1.80;99.90;;;;;;5121413;27;20003;-85
2023/12/08 02:44:40;;;;;;;;;;;1.80;99.90;;;;;;5120492;27;19927;-83
2023/12/08 02:47:06;;;;;;;;;;;1.80;99.90;;;;;;5118833;27;19923;-84
2023/12/08 02:49:32;;;;;;;;;;;1.80;99.90;;;;;;5118586;27;19931;-85
2023/12/08 02:51:58;;;;;;;;;;;1.80;99.90;;;;;;5114189;28;20375;-83
2023/12/08 02:54:24;;;;;;;;;;;1.80;99.90;;;;;;5118754;27;19939;-85
2023/12/08 02:56:49;;;;;;;;;;;1.80;99.90;;;;;;5128707;27;20022;-85
2023/12/08 02:59:15;;;;;;;;;;;1.80;99.90;;;;;;5106168;28;20441;-83
2023/12/08 03:01:40;;;;;;;;;;;1.80;99.90;;;;;;5111716;28;20013;-83
2023/12/08 03:04:06;;;;;;;;;;;1.80;99.90;;;;;;5113757;28;19928;-83
2023/12/08 03:06:31;;;;;;;;;;;1.80;99.90;;;;;;5095795;28;19927;-84
2023/12/08 03:08:57;;;;;;;;;;;1.70;99.90;;;;;;5114122;28;19928;-84
2023/12/08 03:11:22;;;;;;;;;;;1.60;99.90;;;;;;5111405;28;20068;-83
2023/12/08 03:13:48;;;;;;;;;;;1.70;99.90;;;;;;5111495;28;19923;-84
2023/12/08 03:16:14;;;;;;;;;;;1.60;99.90;;;;;;5108486;28;20378;-83
2023/12/08 03:18:39;;;;;;;;;;;1.50;99.90;;;;;;5114300;28;19945;-85
2023/12/08 03:21:05;;;;;;;;;;;1.40;99.90;;;;;;5112169;27;19924;-84
2023/12/08 03:23:30;;;;;;;;;;;1.40;99.90;;;;;;5145113;27;19967;-84
2023/12/08 03:25:56;;;;;;;;;;;1.50;99.90;;;;;;5120684;27;20014;-84
2023/12/08 03:28:22;;;;;;;;;;;1.30;99.90;;;;;;5115929;27;19996;-86
2023/12/08 03:30:47;;;;;;;;;;;1.20;99.90;;;;;;5118199;27;19928;-83
2023/12/08 03:33:13;;;;;;;;;;;1.10;99.90;;;;;;5116587;27;19927;-84
2023/12/08 03:35:38;;;;;;;;;;;1.10;99.90;;;;;;5118640;27;19931;-83
2023/12/08 03:38:04;;;;;;;;;;;1.10;99.90;;;;;;5117974;27;19928;-83
2023/12/08 03:40:29;;;;;;;;;;;1.10;99.90;;;;;;5118368;27;20370;-83
2023/12/08 03:42:55;;;;;;;;;;;1.00;99.90;;;;;;5116974;27;20312;-84
2023/12/08 03:45:21;;;;;;;;;;;1.00;99.90;;;;;;5120689;27;20027;-83
2023/12/08 03:47:46;;;;;;;;;;;0.90;99.90;;;;;;5098010;27;19988;-83
2023/12/08 03:50:12;;;;;;;;;;;1.00;99.90;;;;;;5116218;27;20061;-83
2023/12/08 03:52:37;;;;;;;;;;;0.90;99.90;;;;;;5141643;27;19932;-82
2023/12/08 03:55:03;;;;;;;;;;;0.90;99.90;;;;;;5113381;27;19928;-83
2023/12/08 03:57:29;;;;;;;;;;;0.90;99.90;;;;;;5127454;27;19969;-83
2023/12/08 03:59:54;;;;;;;;;;;0.90;99.90;;;;;;5102642;27;19953;-84
2023/12/08 04:02:20;;;;;;;;;;;0.90;99.90;;;;;;5122397;27;20034;-83
2023/12/08 04:04:46;;;;;;;;;;;0.90;99.90;;;;;;5115906;27;19924;-83
2023/12/08 04:07:11;;;;;;;;;;;0.90;99.90;;;;;;5125807;27;19972;-82
2023/12/08 04:09:37;;;;;;;;;;;0.90;99.90;;;;;;5113130;27;19928;-83
2023/12/08 04:12:02;;;;;;;;;;;0.90;99.90;;;;;;5095727;28;19935;-83
2023/12/08 04:14:28;;;;;;;;;;;0.90;99.90;;;;;;5111701;27;19932;-84
2023/12/08 04:16:54;;;;;;;;;;;0.90;99.90;;;;;;5116552;27;19924;-82
2023/12/08 04:19:20;;;;;;;;;;;0.90;99.90;;;;;;5115498;27;19924;-82
2023/12/08 04:21:45;;;;;;;;;;;0.90;99.90;;;;;;5095322;28;19932;-83
2023/12/08 04:24:11;;;;;;;;;;;1.00;99.90;;;;;;5121700;27;19931;-82
2023/12/08 04:26:36;;;;;;;;;;;0.90;99.90;;;;;;5123333;27;19992;-83
2023/12/08 04:29:02;;;;;;;;;;;0.90;99.90;;;;;;5124186;27;19924;-82
2023/12/08 04:31:27;;;;;;;;;;;0.90;99.90;;;;;;5118047;27;20026;-83
2023/12/08 04:33:53;;;;;;;;;;;0.90;99.90;;;;;;5116820;27;19979;-82
2023/12/08 04:36:18;;;;;;;;;;;0.90;99.90;;;;;;5126503;27;19923;-83
2023/12/08 04:38:44;;;;;;;;;;;0.80;99.90;;;;;;5117852;27;19992;-84
2023/12/08 04:41:10;;;;;;;;;;;0.90;99.90;;;;;;5120871;27;19923;-82
2023/12/08 04:43:35;;;;;;;;;;;0.80;99.90;;;;;;5119872;27;19973;-83
2023/12/08 04:46:01;;;;;;;;;;;0.90;99.90;;;;;;5122892;27;19924;-82
2023/12/08 04:48:26;;;;;;;;;;;0.80;99.90;;;;;;5119417;27;19923;-83
2023/12/08 04:50:52;;;;;;;;;;;0.80;99.90;;;;;;5122381;27;19927;-83
2023/12/08 04:53:17;;;;;;;;;;;0.80;99.90;;;;;;5123053;27;19928;-82
2023/12/08 04:55:43;;;;;;;;;;;0.80;99.90;;;;;;5111341;27;19950;-83
2023/12/08 04:58:09;;;;;;;;;;;0.80;99.90;;;;;;5120183;27;20007;-83
2023/12/08 05:00:34;;;;;;;;;;;0.80;99.90;;;;;;5116492;27;19974;-83
2023/12/08 05:03:00;;;;;;;;;;;0.80;99.90;;;;;;5113692;27;19924;-82
2023/12/08 05:05:26;;;;;;;;;;;0.80;99.90;;;;;;5110443;27;20378;-84
2023/12/08 05:07:52;;;;;;;;;;;0.80;99.90;;;;;;5122628;27;20006;-82
2023/12/08 05:10:18;;;;;;;;;;;0.80;99.90;;;;;;5130929;27;20050;-83
2023/12/08 05:12:44;;;;;;;;;;;0.90;99.90;;;;;;5114385;27;19927;-83
2023/12/08 05:15:09;;;;;;;;;;;0.80;99.90;;;;;;5125488;27;19931;-82
2023/12/08 05:17:36;;;;;;;;;;;0.80;99.90;;;;;;5126958;27;19930;-83
2023/12/08 05:20:05;;;;;;;;;;;0.80;99.90;;;;;;5120588;27;19970;-83
2023/12/08 05:22:31;;;;;;;;;;;0.80;99.90;;;;;;5122601;27;19928;-83
2023/12/08 05:24:56;;;;;;;;;;;0.80;99.90;;;;;;5122809;27;19977;-82
2023/12/08 05:27:22;;;;;;;;;;;0.80;99.90;;;;;;5115761;27;20277;-83
2023/12/08 05:29:47;;;;;;;;;;;0.80;99.90;;;;;;5111037;27;19923;-82
2023/12/08 05:32:13;;;;;;;;;;;0.90;99.90;;;;;;5123224;27;20393;-83
2023/12/08 05:34:39;;;;;;;;;;;0.80;99.90;;;;;;5123635;27;19950;-82
2023/12/08 05:37:04;;;;;;;;;;;0.80;99.90;;;;;;5117816;27;19923;-84
2023/12/08 05:39:30;;;;;;;;;;;0.70;99.90;;;;;;5117161;27;19927;-82
2023/12/08 05:41:55;;;;;;;;;;;0.80;99.90;;;;;;5110565;27;19931;-83
2023/12/08 05:44:21;;;;;;;;;;;0.80;99.90;;;;;;5119108;27;19923;-83
2023/12/08 05:46:46;;;;;;;;;;;0.80;99.90;;;;;;5121418;27;19927;-83
2023/12/08 05:49:12;;;;;;;;;;;0.70;99.90;;;;;;5119880;27;20366;-82
2023/12/08 05:51:38;;;;;;;;;;;0.80;99.90;;;;;;5114123;27;19939;-83
2023/12/08 05:54:03;;;;;;;;;;;0.80;99.90;;;;;;5149966;27;19938;-83
2023/12/08 05:56:29;;;;;;;;;;;0.80;99.90;;;;;;5115301;27;19931;-83
2023/12/08 05:58:54;;;;;;;;;;;0.80;99.90;;;;;;5112868;27;20371;-83
2023/12/08 06:01:21;;;;;;;;;;;0.80;99.90;;;;;;5114078;27;19923;-83
2023/12/08 06:03:47;;;;;;;;;;;0.80;99.90;;;;;;5112304;27;20576;-83
2023/12/08 06:06:13;;;;;;;;;;;0.90;99.90;;;;;;5113424;27;19983;-83
2023/12/08 06:08:38;;;;;;;;;;;0.80;99.90;;;;;;5113204;27;19931;-82
2023/12/08 06:11:04;;;;;;;;;;;0.80;99.90;;;;;;5115486;27;19931;-83
2023/12/08 06:13:29;;;;;;;;;;;0.80;99.90;;;;;;5111969;27;20406;-84
2023/12/08 06:15:55;;;;;;;;;;;0.80;99.90;;;;;;5110016;27;20388;-83
2023/12/08 06:18:21;;;;;;;;;;;0.80;99.90;;;;;;5114977;27;19924;-83
2023/12/08 06:20:46;;;;;;;;;;;0.80;99.90;;;;;;5096385;28;19967;-83
2023/12/08 06:23:12;;;;;;;;;;;0.80;99.90;;;;;;5114155;27;20452;-83
2023/12/08 06:25:37;;;;;;;;;;;0.80;99.90;;;;;;5115829;27;19924;-83
2023/12/08 06:28:03;;;;;;;;;;;0.90;99.90;;;;;;5112619;27;19931;-84
2023/12/08 06:30:28;;;;;;;;;;;0.80;99.90;;;;;;5118020;27;19928;-83
2023/12/08 06:32:54;;;;;;;;;;;0.80;99.90;;;;;;5122560;27;19923;-84
2023/12/08 06:35:20;;;;;;;;;;;0.80;99.90;;;;;;5120542;27;20003;-82
2023/12/08 06:37:45;;;;;;;;;;;0.80;99.90;;;;;;5123039;27;20431;-83
2023/12/08 06:40:11;;;;;;;;;;;0.80;99.90;;;;;;5117316;27;20014;-82
2023/12/08 06:42:37;;;;;;;;;;;0.80;99.90;;;;;;5114401;27;19973;-82
2023/12/08 06:45:02;;;;;;;;;;;0.80;99.90;;;;;;5099981;28;19932;-82
2023/12/08 06:47:28;;;;;;;;;;;0.80;99.90;;;;;;5114470;27;19984;-82
2023/12/08 06:49:53;;;;;;;;;;;0.80;99.90;;;;;;5121881;27;20400;-83
2023/12/08 06:52:19;;;;;;;;;;;0.80;99.90;;;;;;5116628;27;19928;-82
2023/12/08 06:54:45;;;;;;;;;;;0.80;99.90;;;;;;5112658;28;19923;-81
2023/12/08 06:57:10;;;;;;;;;;;0.80;99.90;;;;;;5092880;28;19923;-83
2023/12/08 06:59:36;;;;;;;;;;;0.90;99.90;;;;;;5102905;28;19931;-83
2023/12/08 07:02:02;;;;;;;;;;;0.90;99.90;;;;;;5139011;27;20262;-82
2023/12/08 07:04:27;;;;;;;;;;;0.80;99.90;;;;;;5121892;28;20302;-82
2023/12/08 07:06:53;;;;;;;;;;;0.80;99.90;;;;;;5116404;28;20010;-82
2023/12/08 07:09:19;;;;;;;;;;;0.80;99.90;;;;;;5109325;28;19992;-84
2023/12/08 07:11:44;;;;;;;;;;;0.80;99.90;;;;;;5112051;28;19935;-82
2023/12/08 07:14:10;;;;;;;;;;;0.90;99.90;;;;;;5114913;28;19924;-83
2023/12/08 07:16:35;;;;;;;;;;;1.00;99.90;;;;;;5083228;28;19965;-83
2023/12/08 07:19:01;;;;;;;;;;;0.90;99.90;;;;;;5115071;28;19924;-84
2023/12/08 07:21:27;;;;;;;;;;;0.90;99.90;;;;;;5115291;28;19946;-87
2023/12/08 07:23:52;;;;;;;;;;;0.90;99.90;;;;;;5155330;27;19923;-84
2023/12/08 07:26:18;;;;;;;;;;;0.90;99.90;;;;;;5118399;28;19924;-85
2023/12/08 07:28:44;;;;;;;;;;;0.90;99.90;;;;;;5118196;28;19932;-84
2023/12/08 07:31:10;;;;;;;;;;;1.00;99.90;;;;;;5117977;28;19931;-83
2023/12/08 07:33:35;;;;;;;;;;;0.90;99.90;;;;;;5115744;28;19924;-83
2023/12/08 07:36:01;;;;;;;;;;;1.00;99.90;;;;;;5119940;28;19950;-83
2023/12/08 07:38:26;;;;;;;;;;;1.00;99.90;;;;;;5121011;28;19927;-83
2023/12/08 07:40:53;;;;;;;;;;;1.00;99.90;;;;;;5114989;28;19927;-83
2023/12/08 07:43:18;;;;;;;;;;;1.00;99.90;;;;;;5101295;28;20331;-84
2023/12/08 07:45:44;;;;;;;;;;;1.00;99.90;;;;;;5096573;28;20048;-83
2023/12/08 07:48:10;;;;;;;;;;;1.10;99.90;;;;;;5115605;28;19959;-83
2023/12/08 07:50:36;;;;;;;;;;;1.00;99.90;;;;;;5112907;28;20027;-84
2023/12/08 07:53:02;;;;;;;;;;;1.00;99.90;;;;;;5121374;27;19924;-84
2023/12/08 07:55:28;;;;;;;;;;;1.10;99.90;;;;;;5113444;28;19924;-83
2023/12/08 07:57:53;;;;;;;;;;;1.10;99.90;;;;;;5142767;27;19935;-82
2023/12/08 08:00:20;;;;;;;;;;;1.10;99.90;;;;;;5113250;28;19924;-82
2023/12/08 08:02:45;;;;;;;;;;;1.10;99.90;;;;;;5135773;27;20039;-85
2023/12/08 08:05:11;;;;;;;;;;;1.00;99.90;;;;;;5115579;28;20345;-82
2023/12/08 08:07:37;;;;;;;;;;;1.20;99.90;;;;;;5110496;27;19984;-83
2023/12/08 08:10:03;;;;;;;;;;;1.10;99.90;;;;;;5120240;27;20019;-84
2023/12/08 08:12:31;;;;;;;;;;;1.10;99.90;;;;;;5118598;27;19932;-84
2023/12/08 08:15:00;;;;;;;;;;;1.10;99.90;;;;;;5115756;27;20358;-86
2023/12/08 08:17:26;;;;;;;;;;;1.10;99.90;;;;;;5100669;28;19955;-84
2023/12/08 08:19:51;;;;;;;;;;;1.20;99.90;;;;;;5112259;27;20328;-83
2023/12/08 08:22:17;;;;;;;;;;;1.20;99.90;;;;;;5144909;27;19924;-84
2023/12/08 08:24:42;;;;;;;;;;;1.20;99.90;;;;;;5117104;27;19958;-84
2023/12/08 08:27:09;;;;;;;;;;;1.30;99.90;;;;;;5118206;27;19924;-84
2023/12/08 08:29:34;;;;;;;;;;;1.20;99.90;;;;;;5116482;27;19934;-88
2023/12/08 08:32:00;;;;;;;;;;;1.20;99.90;;;;;;5118819;27;19928;-86
2023/12/08 08:34:25;;;;;;;;;;;1.10;99.90;;;;;;5115506;27;19932;-86
2023/12/08 08:36:51;;;;;;;;;;;1.20;99.90;;;;;;5120892;27;19928;-83
2023/12/08 08:39:18;;;;;;;;;;;1.20;99.90;;;;;;5114962;27;19984;-84
2023/12/08 08:41:48;;;;;;;;;;;1.20;99.90;;;;;;5118331;27;20060;-86
2023/12/08 08:44:14;;;;;;;;;;;1.20;99.90;;;;;;5118921;27;19928;-84
2023/12/08 08:46:44;;;;;;;;;;;1.20;99.90;;;;;;5116946;27;19923;-84
2023/12/08 08:49:10;;;;;;;;;;;1.20;99.90;;;;;;5113209;27;20416;-85
2023/12/08 08:51:35;;;;;;;;;;;1.20;99.90;;;;;;5112501;27;19985;-83
2023/12/08 08:54:02;;;;;;;;;;;1.10;99.90;;;;;;5112003;27;20644;-84
2023/12/08 08:56:27;;;;;;;;;;;1.20;99.90;;;;;;5114086;27;19935;-84
2023/12/08 08:58:53;;;;;;;;;;;1.20;99.90;;;;;;5116077;27;20344;-84
2023/12/08 09:01:18;;;;;;;;;;;1.20;99.90;;;;;;5113233;27;19994;-86
2023/12/08 09:03:44;;;;;;;;;;;1.20;99.90;;;;;;5113111;27;19959;-84
2023/12/08 09:06:11;;;;;;;;;;;1.20;99.90;;;;;;5111074;27;20221;-83
2023/12/08 09:08:37;;;;;;;;;;;1.20;99.90;;;;;;5116415;27;20389;-84
2023/12/08 09:11:03;;;;;;;;;;;1.20;99.90;;;;;;5114373;27;19931;-85
2023/12/08 09:13:29;;;;;;;;;;;1.30;99.90;;;;;;5110050;28;19928;-84
2023/12/08 09:15:55;;;;;;;;;;;1.30;99.90;;;;;;5115257;27;19924;-84
2023/12/08 09:18:20;;;;;;;;;;;1.30;99.90;;;;;;5113639;28;19935;-84
2023/12/08 09:20:46;;;;;;;;;;;1.30;99.90;;;;;;5113362;27;19924;-85
2023/12/08 09:23:12;;;;;;;;;;;1.30;99.90;;;;;;5095474;28;19928;-85
2023/12/08 09:25:37;;;;;;;;;;;1.20;99.90;;;;;;5113833;28;19930;-84
2023/12/08 09:28:04;;;;;;;;;;;1.30;99.90;;;;;;5111095;27;20195;-84
2023/12/08 09:30:30;;;;;;;;;;;1.30;99.90;;;;;;5135252;27;19931;-86
2023/12/08 09:32:55;;;;;;;;;;;1.40;99.90;;;;;;5109247;27;19928;-84
2023/12/08 09:35:21;;;;;;;;;;;1.30;99.90;;;;;;5109352;27;20415;-85
2023/12/08 09:37:47;;;;;;;;;;;1.40;99.90;;;;;;5096475;28;20660;-85
2023/12/08 09:40:15;;;;;;;;;;;1.40;99.90;;;;;;5117529;27;19956;-91
2023/12/08 09:42:51;;;;;;;;;;;1.40;99.90;;;;;;5118487;27;19923;-85
2023/12/08 09:45:18;;;;;;;;;;;1.40;99.90;;;;;;5112053;28;20018;-86
2023/12/08 09:47:46;;;;;;;;;;;1.40;99.90;;;;;;5113286;27;20434;-84
2023/12/08 09:50:12;;;;;;;;;;;1.50;99.90;;;;;;5114696;27;20279;-86
2023/12/08 09:52:38;;;;;;;;;;;1.40;99.90;;;;;;5110294;27;19931;-84
2023/12/08 09:55:04;;;;;;;;;;;1.40;99.90;;;;;;5114534;27;19927;-86
2023/12/08 09:57:32;;;;;;;;;;;1.40;99.90;;;;;;5112015;27;19932;-85
2023/12/08 10:00:01;;;;;;;;;;;1.40;99.90;;;;;;5110954;27;19938;-87
2023/12/08 10:02:26;;;;;;;;;;;1.50;99.90;;;;;;5112627;27;19929;-85
2023/12/08 10:04:52;;;;;;;;;;;1.50;99.90;;;;;;5100439;28;19924;-84
2023/12/08 10:07:20;;;;;;;;;;;1.50;99.90;;;;;;5096510;28;20018;-82
2023/12/08 10:09:46;;;;;;;;;;;1.50;99.90;;;;;;5113134;27;19923;-86
2023/12/08 10:12:12;;;;;;;;;;;1.50;99.90;;;;;;5120193;27;19930;-87
2023/12/08 10:14:50;;;;;;;;;;;1.50;99.90;;;;;;5113081;27;19928;-84
2023/12/08 10:17:16;;;;;;;;;;;1.50;99.90;;;;;;5112178;27;19946;-83
2023/12/08 10:19:42;;;;;;;;;;;1.50;99.90;;;;;;5111358;28;20355;-85
2023/12/08 10:22:07;;;;;;;;;;;1.50;99.90;;;;;;5104736;28;19960;-84
2023/12/08 10:24:33;;;;;;;;;;;1.60;99.90;;;;;;5105149;28;19928;-85
2023/12/08 10:26:59;;;;;;;;;;;1.60;99.90;;;;;;5118296;27;19967;-84
2023/12/08 10:29:32;;;;;;;;;;;1.70;99.90;;;;;;5098337;28;19946;-84
2023/12/08 10:31:58;;;;;;;;;;;1.60;99.90;;;;;;5109268;28;19928;-83
2023/12/08 10:34:24;;;;;;;;;;;1.60;99.90;;;;;;5103626;28;19943;-83
2023/12/08 10:36:49;;;;;;;;;;;1.60;99.90;;;;;;5145975;27;19931;-83
2023/12/08 10:39:17;;;;;;;;;;;1.60;99.90;;;;;;5117300;27;20362;-84
2023/12/08 10:41:43;;;;;;;;;;;1.60;99.90;;;;;;5100596;28;20003;-83
2023/12/08 10:44:10;;;;;;;;;;;1.60;99.90;;;;;;5119785;27;19923;-86
2023/12/08 10:46:36;;;;;;;;;;;1.70;99.90;;;;;;5103682;28;19931;-83
2023/12/08 10:49:03;;;;;;;;;;;1.70;99.90;;;;;;5113878;28;19931;-83
2023/12/08 10:51:29;;;;;;;;;;;1.70;99.90;;;;;;5113801;28;19970;-83
2023/12/08 10:53:55;;;;;;;;;;;1.70;99.90;;;;;;5114173;27;19923;-84
2023/12/08 10:56:21;;;;;;;;;;;1.70;99.90;;;;;;5119692;27;19965;-84
2023/12/08 10:58:49;;;;;;;;;;;1.70;99.90;;;;;;5107837;27;20405;-84
2023/12/08 11:01:14;;;;;;;;;;;1.70;99.90;;;;;;5109402;28;20312;-84
2023/12/08 11:03:41;;;;;;;;;;;1.80;99.90;;;;;;5110046;28;19977;-85
2023/12/08 11:06:12;;;;;;;;;;;1.70;99.90;;;;;;5123762;28;20046;-87
2023/12/08 11:08:44;;;;;;;;;;;1.80;99.90;;;;;;5119138;28;19943;-85
2023/12/08 11:11:11;;;;;;;;;;;1.80;99.90;;;;;;5110973;28;19981;-84
2023/12/08 11:13:40;;;;;;;;;;;1.80;99.90;;;;;;5114341;28;20443;-84
2023/12/08 11:16:21;;;;;;;;;;;1.80;99.90;;;;;;5113103;28;19985;-84
2023/12/08 11:18:47;;;;;;;;;;;1.90;99.90;;;;;;5154681;27;19928;-84
2023/12/08 11:21:13;;;;;;;;;;;1.90;99.90;;;;;;5118887;28;20015;-84
2023/12/08 11:23:39;;;;;;;;;;;1.90;99.90;;;;;;5122914;27;20007;-84
2023/12/08 11:26:24;;;;;;;;;;;1.90;99.90;;;;;;5113762;28;19924;-83
2023/12/08 11:28:52;;;;;;;;;;;1.90;99.90;;;;;;5117563;28;19924;-84
2023/12/08 11:31:26;;;;;;;;;;;2.00;99.90;;;;;;5116707;28;19931;-85
2023/12/08 11:33:56;;;;;;;;;;;1.90;99.90;;;;;;5124581;28;19937;-84
2023/12/08 11:36:22;;;;;;;;;;;2.00;99.90;;;;;;5122277;27;20358;-84
2023/12/08 11:38:47;;;;;;;;;;;2.00;99.90;;;;;;5124267;28;19949;-84
2023/12/08 11:41:13;;;;;;;;;;;2.00;99.90;;;;;;5112915;27;19972;-85
2023/12/08 11:43:43;;;;;;;;;;;2.00;99.90;;;;;;5121996;27;19923;-85
2023/12/08 11:46:09;;;;;;;;;;;2.20;99.90;;;;;;5124009;27;19924;-84
2023/12/08 11:48:35;;;;;;;;;;;2.10;99.90;;;;;;5127177;27;19923;-84
2023/12/08 11:51:03;;;;;;;;;;;2.20;99.90;;;;;;5116804;27;19924;-84
2023/12/08 11:53:31;;;;;;;;;;;2.20;99.90;;;;;;5117319;27;20026;-85
2023/12/08 11:55:57;;;;;;;;;;;2.20;99.90;;;;;;5125497;27;20015;-84
2023/12/08 11:58:35;;;;;;;;;;;2.20;99.90;;;;;;5119859;27;20028;-85
2023/12/08 12:01:03;;;;;;;;;;;2.30;99.90;;;;;;5120255;27;19923;-84
2023/12/08 12:03:30;;;;;;;;;;;2.30;99.90;;;;;;5120984;27;20003;-85
2023/12/08 12:05:56;;;;;;;;;;;2.30;99.90;;;;;;5114028;27;19930;-84
2023/12/08 12:08:25;;;;;;;;;;;2.30;99.90;;;;;;5124658;27;20378;-84
2023/12/08 12:10:52;;;;;;;;;;;2.40;99.90;;;;;;5120625;27;19935;-86
2023/12/08 12:13:19;;;;;;;;;;;2.40;99.90;;;;;;5115432;27;19928;-85
2023/12/08 12:15:44;;;;;;;;;;;2.40;99.90;;;;;;5114373;27;19928;-84
2023/12/08 12:18:10;;;;;;;;;;;2.40;99.90;;;;;;5122097;27;19942;-86
2023/12/08 12:20:38;;;;;;;;;;;2.50;99.90;;;;;;5115994;27;19973;-84
2023/12/08 12:23:04;;;;;;;;;;;2.50;99.90;;;;;;5118148;27;19927;-85
2023/12/08 12:25:30;;;;;;;;;;;2.50;99.90;;;;;;5120580;27;19931;-85
2023/12/08 12:27:57;;;;;;;;;;;2.60;99.90;;;;;;5118579;27;19934;-84
2023/12/08 12:30:23;;;;;;;;;;;2.60;99.90;;;;;;5107826;27;19939;-88
2023/12/08 12:32:49;;;;;;;;;;;2.60;99.90;;;;;;5109117;27;19931;-83
2023/12/08 12:35:16;;;;;;;;;;;2.70;99.90;;;;;;5116049;27;20378;-87
2023/12/08 12:37:42;;;;;;;;;;;2.70;99.90;;;;;;5119369;27;20394;-85
2023/12/08 12:40:08;;;;;;;;;;;2.70;99.90;;;;;;5114010;28;19989;-83
2023/12/08 12:42:38;;;;;;;;;;;2.80;99.90;;;;;;5115491;28;19953;-84
2023/12/08 12:45:04;;;;;;;;;;;2.80;99.90;;;;;;5114117;28;19928;-84
2023/12/08 12:47:30;;;;;;;;;;;2.80;99.90;;;;;;5114642;27;19976;-84
2023/12/08 12:50:06;;;;;;;;;;;2.70;99.90;;;;;;5112520;27;20438;-84
2023/12/08 12:52:34;;;;;;;;;;;2.90;99.90;;;;;;5114654;27;19954;-84
2023/12/08 12:55:00;;;;;;;;;;;2.90;99.90;;;;;;5115712;27;19924;-84
2023/12/08 12:57:44;;;;;;;;;;;2.90;99.90;;;;;;5114878;28;19939;-84
2023/12/08 13:00:10;;;;;;;;;;;3.00;99.90;;;;;;5100547;28;20467;-83
2023/12/08 13:02:36;;;;;;;;;;;3.00;99.90;;;;;;5109864;28;20018;-83
2023/12/08 13:05:07;;;;;;;;;;;3.10;99.90;;;;;;5107566;27;20039;-84
2023/12/08 13:07:33;;;;;;;;;;;3.00;99.90;;;;;;5113886;28;19973;-85
2023/12/08 13:09:59;;;;;;;;;;;3.10;99.90;;;;;;5114358;28;19932;-83
2023/12/08 13:12:25;;;;;;;;;;;3.10;99.90;;;;;;5108826;28;20050;-84
2023/12/08 13:14:51;;;;;;;;;;;3.20;99.90;;;;;;5122435;27;20370;-83
2023/12/08 13:17:19;;;;;;;;;;;3.10;99.90;;;;;;5113797;28;19927;-84
2023/12/08 13:19:45;;;;;;;;;;;3.20;99.90;;;;;;5115247;27;19980;-83
2023/12/08 13:22:11;;;;;;;;;;;3.30;99.90;;;;;;5111711;28;20430;-83
2023/12/08 13:24:36;;;;;;;;;;;3.20;99.90;;;;;;5110461;27;20018;-83
2023/12/08 13:27:02;;;;;;;;;;;3.30;99.90;;;;;;5112697;27;20022;-83
2023/12/08 13:29:28;;;;;;;;;;;3.30;99.90;;;;;;5111960;27;19969;-84
2023/12/08 13:31:54;;;;;;;;;;;3.30;99.90;;;;;;5110551;27;20398;-84
2023/12/08 13:34:20;;;;;;;;;;;3.30;99.90;;;;;;5114125;27;20294;-84
2023/12/08 13:36:45;;;;;;;;;;;3.40;99.90;;;;;;5111045;27;19924;-83
2023/12/08 13:39:11;;;;;;;;;;;3.40;99.90;;;;;;5114692;27;20002;-84
2023/12/08 13:41:36;;;;;;;;;;;3.30;99.90;;;;;;5113347;27;20382;-91
2023/12/08 13:44:08;;;;;;;;;;;3.40;99.90;;;;;;5085903;28;19935;-90
2023/12/08 13:46:34;;;;;;;;;;;3.40;99.90;;;;;;5113162;27;20027;-83
2023/12/08 13:49:00;;;;;;;;;;;3.40;99.90;;;;;;5113598;28;20003;-83
2023/12/08 13:51:25;;;;;;;;;;;3.40;99.90;;;;;;5112518;28;19924;-84
2023/12/08 13:53:51;;;;;;;;;;;3.50;99.90;;;;;;5112324;27;19989;-84
2023/12/08 13:56:17;;;;;;;;;;;3.50;99.90;;;;;;5126830;27;19924;-83
2023/12/08 13:58:42;;;;;;;;;;;3.50;99.90;;;;;;5118050;27;19924;-84
2023/12/08 14:01:08;;;;;;;;;;;3.50;99.90;;;;;;5112954;28;19924;-83
2023/12/08 14:03:34;;;;;;;;;;;3.50;99.90;;;;;;5111215;27;20429;-84
2023/12/08 14:05:59;;;;;;;;;;;3.60;99.90;;;;;;5122391;27;19923;-86
2023/12/08 14:08:25;;;;;;;;;;;3.60;99.90;;;;;;5115721;27;20650;-85
2023/12/08 14:10:50;;;;;;;;;;;3.60;99.90;;;;;;5119400;27;19927;-86
2023/12/08 14:13:16;;;;;;;;;;;3.60;99.90;;;;;;5119307;27;19934;-84
2023/12/08 14:15:42;;;;;;;;;;;3.60;99.90;;;;;;5120628;27;20290;-84
2023/12/08 14:18:07;;;;;;;;;;;3.60;99.90;;;;;;5121034;27;19974;-84
2023/12/08 14:20:33;;;;;;;;;;;3.60;99.90;;;;;;5119393;27;19923;-85
2023/12/08 14:22:58;;;;;;;;;;;3.70;99.90;;;;;;5123506;27;20397;-83
2023/12/08 14:25:24;;;;;;;;;;;3.70;99.90;;;;;;5119995;27;19932;-84